sensor_id;sensor_type;location;lat;lon;timestamp;pressure;altitude;pressure_sealevel;temperature;humidity
23473;BME280;11909;52.516;13.564;2023-07-31T00:02:13;100467.28;;;16.04;96.05
23473;BME280;11909;52.516;13.564;2023-07-31T00:04:41;100464.34;;;16.00;95.70
23473;BME280;11909;52.516;13.564;2023-07-31T00:07:09;100467.28;;;16.04;95.70
23473;BME280;11909;52.516;13.564;2023-07-31T00:09:38;100471.19;;;16.03;95.44
23473;BME280;11909;52.516;13.564;2023-07-31T00:12:07;100454.59;;;15.94;95.56
23473;BME280;11909;52.516;13.564;2023-07-31T00:14:35;100458.31;;;15.98;95.01
23473;BME280;11909;52.516;13.564;2023-07-31T00:17:03;100464.69;;;15.99;94.54
23473;BME280;11909;52.516;13.564;2023-07-31T00:19:31;100450.19;;;15.93;95.48
23473;BME280;11909;52.516;13.564;2023-07-31T00:21:59;100454.75;;;15.89;96.25
23473;BME280;11909;52.516;13.564;2023-07-31T00:24:27;100452.25;;;15.87;96.37
23473;BME280;11909;52.516;13.564;2023-07-31T00:26:56;100444.13;;;15.82;97.03
23473;BME280;11909;52.516;13.564;2023-07-31T00:29:24;100449.16;;;15.80;97.20
23473;BME280;11909;52.516;13.564;2023-07-31T00:31:52;100441.19;;;15.78;97.82
23473;BME280;11909;52.516;13.564;2023-07-31T00:34:20;100440.19;;;15.74;97.45
23473;BME280;11909;52.516;13.564;2023-07-31T00:36:48;100433.03;;;15.73;97.08
23473;BME280;11909;52.516;13.564;2023-07-31T00:39:16;100436.47;;;15.70;97.50
23473;BME280;11909;52.516;13.564;2023-07-31T00:41:44;100419.06;;;15.70;97.30
23473;BME280;11909;52.516;13.564;2023-07-31T00:44:13;100418.06;;;15.74;97.08
23473;BME280;11909;52.516;13.564;2023-07-31T00:46:41;100431.91;;;15.74;97.03
23473;BME280;11909;52.516;13.564;2023-07-31T00:49:10;100421.31;;;15.76;97.11
23473;BME280;11909;52.516;13.564;2023-07-31T00:51:38;100417.91;;;15.80;97.41
23473;BME280;11909;52.516;13.564;2023-07-31T00:54:06;100413.19;;;15.80;97.81
23473;BME280;11909;52.516;13.564;2023-07-31T00:56:34;100412.53;;;15.74;98.53
23473;BME280;11909;52.516;13.564;2023-07-31T00:59:02;100415.31;;;15.74;98.47
23473;BME280;11909;52.516;13.564;2023-07-31T01:01:32;100410.91;;;15.73;98.96
23473;BME280;11909;52.516;13.564;2023-07-31T01:04:00;100410.91;;;15.73;99.59
23473;BME280;11909;52.516;13.564;2023-07-31T01:06:32;100409.94;;;15.69;100.00
23473;BME280;11909;52.516;13.564;2023-07-31T01:09:07;100414.50;;;15.65;100.00
23473;BME280;11909;52.516;13.564;2023-07-31T01:11:43;100407.81;;;15.66;100.00
23473;BME280;11909;52.516;13.564;2023-07-31T01:14:14;100408.63;;;15.67;100.00
23473;BME280;11909;52.516;13.564;2023-07-31T01:16:43;100398.56;;;15.71;100.00
23473;BME280;11909;52.516;13.564;2023-07-31T01:19:14;100398.88;;;15.69;100.00
23473;BME280;11909;52.516;13.564;2023-07-31T01:24:49;100397.72;;;15.61;100.00
23473;BME280;11909;52.516;13.564;2023-07-31T01:27:25;100397.72;;;15.70;100.00
23473;BME280;11909;52.516;13.564;2023-07-31T01:29:57;100391.22;;;15.66;100.00
23473;BME280;11909;52.516;13.564;2023-07-31T01:32:28;100403.09;;;15.67;100.00
23473;BME280;11909;52.516;13.564;2023-07-31T01:34:57;100404.09;;;15.71;100.00
23473;BME280;11909;52.516;13.564;2023-07-31T01:37:28;100400.66;;;15.65;100.00
23473;BME280;11909;52.516;13.564;2023-07-31T01:39:56;100394.47;;;15.59;100.00
23473;BME280;11909;52.516;13.564;2023-07-31T01:42:25;100391.38;;;15.61;100.00
23473;BME280;11909;52.516;13.564;2023-07-31T01:44:53;100383.09;;;15.61;100.00
23473;BME280;11909;52.516;13.564;2023-07-31T01:47:21;100375.09;;;15.59;100.00
23473;BME280;11909;52.516;13.564;2023-07-31T01:49:50;100376.72;;;15.60;100.00
23473;BME280;11909;52.516;13.564;2023-07-31T01:52:18;100375.59;;;15.61;100.00
23473;BME280;11909;52.516;13.564;2023-07-31T01:54:46;100377.06;;;15.59;100.00
23473;BME280;11909;52.516;13.564;2023-07-31T01:57:14;100368.13;;;15.62;100.00
23473;BME280;11909;52.516;13.564;2023-07-31T01:59:43;100368.59;;;15.64;100.00
23473;BME280;11909;52.516;13.564;2023-07-31T02:02:11;100363.56;;;15.57;100.00
23473;BME280;11909;52.516;13.564;2023-07-31T02:04:39;100365.50;;;15.57;100.00
23473;BME280;11909;52.516;13.564;2023-07-31T02:07:07;100366.00;;;15.59;100.00
23473;BME280;11909;52.516;13.564;2023-07-31T02:09:35;100359.81;;;15.53;100.00
23473;BME280;11909;52.516;13.564;2023-07-31T02:12:04;100360.47;;;15.50;100.00
23473;BME280;11909;52.516;13.564;2023-07-31T02:14:32;100359.97;;;15.48;100.00
23473;BME280;11909;52.516;13.564;2023-07-31T02:17:01;100371.19;;;15.52;100.00
23473;BME280;11909;52.516;13.564;2023-07-31T02:19:29;100359.31;;;15.42;100.00
23473;BME280;11909;52.516;13.564;2023-07-31T02:21:57;100362.38;;;15.41;100.00
23473;BME280;11909;52.516;13.564;2023-07-31T02:24:25;100360.09;;;15.43;100.00
23473;BME280;11909;52.516;13.564;2023-07-31T02:26:53;100351.31;;;15.41;100.00
23473;BME280;11909;52.516;13.564;2023-07-31T02:29:21;100355.59;;;15.47;100.00
23473;BME280;11909;52.516;13.564;2023-07-31T02:31:49;100349.69;;;15.40;100.00
23473;BME280;11909;52.516;13.564;2023-07-31T02:34:18;100345.78;;;15.41;100.00
23473;BME280;11909;52.516;13.564;2023-07-31T02:36:46;100354.56;;;15.43;100.00
23473;BME280;11909;52.516;13.564;2023-07-31T02:39:14;100349.22;;;15.46;100.00
23473;BME280;11909;52.516;13.564;2023-07-31T02:41:42;100346.16;;;15.48;100.00
23473;BME280;11909;52.516;13.564;2023-07-31T02:44:10;100344.53;;;15.47;100.00
23473;BME280;11909;52.516;13.564;2023-07-31T02:46:41;100342.91;;;15.46;100.00
23473;BME280;11909;52.516;13.564;2023-07-31T02:49:08;100330.53;;;15.43;100.00
23473;BME280;11909;52.516;13.564;2023-07-31T02:51:38;100327.25;;;15.41;100.00
23473;BME280;11909;52.516;13.564;2023-07-31T02:54:05;100330.03;;;15.41;100.00
23473;BME280;11909;52.516;13.564;2023-07-31T02:56:33;100335.88;;;15.40;100.00
23473;BME280;11909;52.516;13.564;2023-07-31T02:59:01;100337.00;;;15.39;100.00
23473;BME280;11909;52.516;13.564;2023-07-31T03:01:29;100333.44;;;15.38;100.00
23473;BME280;11909;52.516;13.564;2023-07-31T03:03:57;100335.22;;;15.34;100.00
23473;BME280;11909;52.516;13.564;2023-07-31T03:06:25;100333.56;;;15.33;100.00
23473;BME280;11909;52.516;13.564;2023-07-31T03:08:55;100335.84;;;15.31;100.00
23473;BME280;11909;52.516;13.564;2023-07-31T03:11:22;100335.38;;;15.29;100.00
23473;BME280;11909;52.516;13.564;2023-07-31T03:13:50;100339.25;;;15.28;100.00
23473;BME280;11909;52.516;13.564;2023-07-31T03:16:18;100336.19;;;15.29;100.00
23473;BME280;11909;52.516;13.564;2023-07-31T03:18:46;100340.41;;;15.27;100.00
23473;BME280;11909;52.516;13.564;2023-07-31T03:21:14;100338.00;;;15.34;100.00
23473;BME280;11909;52.516;13.564;2023-07-31T03:23:42;100337.34;;;15.37;100.00
23473;BME280;11909;52.516;13.564;2023-07-31T03:26:12;100333.94;;;15.40;100.00
23473;BME280;11909;52.516;13.564;2023-07-31T03:28:40;100316.22;;;15.41;100.00
23473;BME280;11909;52.516;13.564;2023-07-31T03:31:08;100321.56;;;15.46;100.00
23473;BME280;11909;52.516;13.564;2023-07-31T03:33:36;100319.13;;;15.45;100.00
23473;BME280;11909;52.516;13.564;2023-07-31T03:36:04;100315.25;;;15.46;100.00
23473;BME280;11909;52.516;13.564;2023-07-31T03:38:33;100313.44;;;15.50;100.00
23473;BME280;11909;52.516;13.564;2023-07-31T03:41:01;100312.13;;;15.47;100.00
23473;BME280;11909;52.516;13.564;2023-07-31T03:43:30;100305.63;;;15.43;100.00
23473;BME280;11909;52.516;13.564;2023-07-31T03:46:00;100312.59;;;15.41;100.00
23473;BME280;11909;52.516;13.564;2023-07-31T03:48:29;100304.50;;;15.44;100.00
23473;BME280;11909;52.516;13.564;2023-07-31T03:50:57;100301.25;;;15.42;100.00
23473;BME280;11909;52.516;13.564;2023-07-31T03:53:25;100300.09;;;15.43;100.00
23473;BME280;11909;52.516;13.564;2023-07-31T03:55:52;100300.59;;;15.45;100.00
23473;BME280;11909;52.516;13.564;2023-07-31T03:58:20;100298.47;;;15.42;100.00
23473;BME280;11909;52.516;13.564;2023-07-31T04:00:50;100297.00;;;15.45;100.00
23473;BME280;11909;52.516;13.564;2023-07-31T04:03:18;100298.97;;;15.44;100.00
23473;BME280;11909;52.516;13.564;2023-07-31T04:05:46;100300.09;;;15.43;100.00
23473;BME280;11909;52.516;13.564;2023-07-31T04:08:14;100300.59;;;15.45;100.00
23473;BME280;11909;52.516;13.564;2023-07-31T04:10:41;100296.38;;;15.48;100.00
23473;BME280;11909;52.516;13.564;2023-07-31T04:13:09;100292.94;;;15.51;100.00
23473;BME280;11909;52.516;13.564;2023-07-31T04:15:37;100290.97;;;15.52;100.00
23473;BME280;11909;52.516;13.564;2023-07-31T04:18:07;100290.34;;;15.55;100.00
23473;BME280;11909;52.516;13.564;2023-07-31T04:20:35;100278.31;;;15.59;100.00
23473;BME280;11909;52.516;13.564;2023-07-31T04:23:03;100277.66;;;15.54;100.00
23473;BME280;11909;52.516;13.564;2023-07-31T04:25:33;100279.63;;;15.53;100.00
23473;BME280;11909;52.516;13.564;2023-07-31T04:28:01;100277.50;;;15.50;100.00
23473;BME280;11909;52.516;13.564;2023-07-31T04:30:29;100273.91;;;15.49;100.00
23473;BME280;11909;52.516;13.564;2023-07-31T04:32:57;100273.75;;;15.55;100.00
23473;BME280;11909;52.516;13.564;2023-07-31T04:35:27;100283.34;;;15.57;100.00
23473;BME280;11909;52.516;13.564;2023-07-31T04:37:55;100274.75;;;15.59;100.00
23473;BME280;11909;52.516;13.564;2023-07-31T04:40:23;100276.66;;;15.58;100.00
23473;BME280;11909;52.516;13.564;2023-07-31T04:42:51;100276.50;;;15.55;100.00
23473;BME280;11909;52.516;13.564;2023-07-31T04:45:18;100272.28;;;15.57;100.00
23473;BME280;11909;52.516;13.564;2023-07-31T04:47:46;100273.13;;;15.58;100.00
23473;BME280;11909;52.516;13.564;2023-07-31T04:50:14;100265.13;;;15.65;100.00
23473;BME280;11909;52.516;13.564;2023-07-31T04:52:44;100268.06;;;15.69;100.00
23473;BME280;11909;52.516;13.564;2023-07-31T04:55:12;100266.41;;;15.68;100.00
23473;BME280;11909;52.516;13.564;2023-07-31T04:57:40;100263.63;;;15.68;100.00
23473;BME280;11909;52.516;13.564;2023-07-31T05:00:08;100264.16;;;15.70;100.00
23473;BME280;11909;52.516;13.564;2023-07-31T05:02:37;100267.06;;;15.73;100.00
23473;BME280;11909;52.516;13.564;2023-07-31T05:05:05;100271.44;;;15.74;100.00
23473;BME280;11909;52.516;13.564;2023-07-31T05:07:33;100267.22;;;15.77;100.00
23473;BME280;11909;52.516;13.564;2023-07-31T05:10:02;100263.81;;;15.80;100.00
23473;BME280;11909;52.516;13.564;2023-07-31T05:12:30;100255.34;;;15.76;100.00
23473;BME280;11909;52.516;13.564;2023-07-31T05:14:58;100266.56;;;15.71;100.00
23473;BME280;11909;52.516;13.564;2023-07-31T05:17:26;100256.16;;;15.68;100.00
23473;BME280;11909;52.516;13.564;2023-07-31T05:19:54;100263.50;;;15.73;100.00
23473;BME280;11909;52.516;13.564;2023-07-31T05:22:22;100259.25;;;15.75;100.00
23473;BME280;11909;52.516;13.564;2023-07-31T05:24:50;100265.91;;;15.83;100.00
23473;BME280;11909;52.516;13.564;2023-07-31T05:27:19;100268.34;;;15.85;100.00
23473;BME280;11909;52.516;13.564;2023-07-31T05:29:47;100259.59;;;15.91;100.00
23473;BME280;11909;52.516;13.564;2023-07-31T05:32:15;100255.16;;;15.90;100.00
23473;BME280;11909;52.516;13.564;2023-07-31T05:34:43;100257.47;;;15.88;100.00
23473;BME280;11909;52.516;13.564;2023-07-31T05:37:11;100257.63;;;15.92;100.00
23473;BME280;11909;52.516;13.564;2023-07-31T05:39:39;100252.56;;;15.94;100.00
23473;BME280;11909;52.516;13.564;2023-07-31T05:42:07;100254.50;;;16.02;100.00
23473;BME280;11909;52.516;13.564;2023-07-31T05:44:36;100246.72;;;15.96;100.00
23473;BME280;11909;52.516;13.564;2023-07-31T05:47:04;100248.66;;;15.95;100.00
23473;BME280;11909;52.516;13.564;2023-07-31T05:49:33;100249.63;;;15.99;100.00
23473;BME280;11909;52.516;13.564;2023-07-31T05:52:00;100255.13;;;16.08;100.00
23473;BME280;11909;52.516;13.564;2023-07-31T05:54:28;100255.00;;;16.04;100.00
23473;BME280;11909;52.516;13.564;2023-07-31T05:56:56;100248.31;;;16.05;100.00
23473;BME280;11909;52.516;13.564;2023-07-31T05:59:24;100248.97;;;16.02;100.00
23473;BME280;11909;52.516;13.564;2023-07-31T06:01:54;100243.09;;;16.04;100.00
23473;BME280;11909;52.516;13.564;2023-07-31T06:04:22;100246.69;;;16.04;100.00
23473;BME280;11909;52.516;13.564;2023-07-31T06:06:52;100247.84;;;16.03;100.00
23473;BME280;11909;52.516;13.564;2023-07-31T06:09:20;100240.34;;;16.04;100.00
23473;BME280;11909;52.516;13.564;2023-07-31T06:11:48;100242.31;;;16.03;100.00
23473;BME280;11909;52.516;13.564;2023-07-31T06:14:16;100248.81;;;16.08;100.00
23473;BME280;11909;52.516;13.564;2023-07-31T06:16:44;100242.13;;;16.09;100.00
23473;BME280;11909;52.516;13.564;2023-07-31T06:19:13;100241.94;;;16.14;100.00
23473;BME280;11909;52.516;13.564;2023-07-31T06:21:41;100233.78;;;16.17;100.00
23473;BME280;11909;52.516;13.564;2023-07-31T06:24:10;100238.34;;;16.13;100.00
23473;BME280;11909;52.516;13.564;2023-07-31T06:26:39;100236.25;;;16.10;100.00
23473;BME280;11909;52.516;13.564;2023-07-31T06:29:08;100239.97;;;16.14;100.00
23473;BME280;11909;52.516;13.564;2023-07-31T06:31:36;100238.50;;;16.17;100.00
23473;BME280;11909;52.516;13.564;2023-07-31T06:34:05;100246.63;;;16.22;100.00
23473;BME280;11909;52.516;13.564;2023-07-31T06:36:34;100240.97;;;16.18;100.00
23473;BME280;11909;52.516;13.564;2023-07-31T06:39:03;100240.59;;;16.20;100.00
23473;BME280;11909;52.516;13.564;2023-07-31T06:41:31;100248.13;;;16.19;100.00
23473;BME280;11909;52.516;13.564;2023-07-31T06:43:59;100245.34;;;16.19;100.00
23473;BME280;11909;52.516;13.564;2023-07-31T06:46:27;100237.19;;;16.23;100.00
23473;BME280;11909;52.516;13.564;2023-07-31T06:48:55;100251.50;;;16.25;100.00
23473;BME280;11909;52.516;13.564;2023-07-31T06:51:23;100238.44;;;16.34;100.00
23473;BME280;11909;52.516;13.564;2023-07-31T06:53:52;100234.28;;;16.19;100.00
23473;BME280;11909;52.516;13.564;2023-07-31T06:56:21;100231.31;;;16.25;100.00
23473;BME280;11909;52.516;13.564;2023-07-31T06:58:49;100232.09;;;16.34;100.00
23473;BME280;11909;52.516;13.564;2023-07-31T07:01:17;100238.66;;;16.20;100.00
23473;BME280;11909;52.516;13.564;2023-07-31T07:03:45;100237.03;;;16.19;100.00
23473;BME280;11909;52.516;13.564;2023-07-31T07:06:13;100229.03;;;16.27;100.00
23473;BME280;11909;52.516;13.564;2023-07-31T07:08:40;100231.59;;;16.32;100.00
23473;BME280;11909;52.516;13.564;2023-07-31T07:11:10;100234.06;;;16.33;100.00
23473;BME280;11909;52.516;13.564;2023-07-31T07:13:38;100234.09;;;16.25;100.00
23473;BME280;11909;52.516;13.564;2023-07-31T07:16:06;100238.31;;;16.22;100.00
23473;BME280;11909;52.516;13.564;2023-07-31T07:18:34;100235.19;;;16.32;100.00
23473;BME280;11909;52.516;13.564;2023-07-31T07:21:07;100240.38;;;16.34;100.00
23473;BME280;11909;52.516;13.564;2023-07-31T07:23:34;100245.13;;;16.33;100.00
23473;BME280;11909;52.516;13.564;2023-07-31T07:26:03;100241.75;;;16.19;100.00
23473;BME280;11909;52.516;13.564;2023-07-31T07:28:32;100250.06;;;16.19;100.00
23473;BME280;11909;52.516;13.564;2023-07-31T07:31:00;100240.28;;;16.22;100.00
23473;BME280;11909;52.516;13.564;2023-07-31T07:33:27;100241.63;;;16.15;100.00
23473;BME280;11909;52.516;13.564;2023-07-31T07:36:00;100231.50;;;16.19;100.00
23473;BME280;11909;52.516;13.564;2023-07-31T07:38:28;100234.75;;;16.22;100.00
23473;BME280;11909;52.516;13.564;2023-07-31T07:40:55;100228.34;;;16.30;100.00
23473;BME280;11909;52.516;13.564;2023-07-31T07:43:23;100221.47;;;16.36;100.00
23473;BME280;11909;52.516;13.564;2023-07-31T07:45:53;100231.91;;;16.39;100.00
23473;BME280;11909;52.516;13.564;2023-07-31T07:48:21;100221.81;;;16.43;100.00
23473;BME280;11909;52.516;13.564;2023-07-31T07:50:50;100229.59;;;16.50;100.00
23473;BME280;11909;52.516;13.564;2023-07-31T07:53:18;100225.53;;;16.47;100.00
23473;BME280;11909;52.516;13.564;2023-07-31T07:55:46;100220.13;;;16.51;100.00
23473;BME280;11909;52.516;13.564;2023-07-31T07:58:14;100210.69;;;16.52;100.00
23473;BME280;11909;52.516;13.564;2023-07-31T08:00:41;100212.25;;;16.62;100.00
23473;BME280;11909;52.516;13.564;2023-07-31T08:03:11;100211.44;;;16.61;100.00
23473;BME280;11909;52.516;13.564;2023-07-31T08:05:39;100203.59;;;16.63;100.00
23473;BME280;11909;52.516;13.564;2023-07-31T08:08:07;100214.69;;;16.63;100.00
23473;BME280;11909;52.516;13.564;2023-07-31T08:10:35;100208.63;;;16.70;100.00
23473;BME280;11909;52.516;13.564;2023-07-31T08:13:03;100213.22;;;16.66;100.00
23473;BME280;11909;52.516;13.564;2023-07-31T08:15:31;100222.31;;;16.67;100.00
23473;BME280;11909;52.516;13.564;2023-07-31T08:17:59;100212.72;;;16.64;100.00
23473;BME280;11909;52.516;13.564;2023-07-31T08:20:28;100217.59;;;16.67;100.00
23473;BME280;11909;52.516;13.564;2023-07-31T08:22:56;100208.13;;;16.68;100.00
23473;BME280;11909;52.516;13.564;2023-07-31T08:25:25;100201.44;;;16.69;100.00
23473;BME280;11909;52.516;13.564;2023-07-31T08:27:53;100193.19;;;16.60;100.00
23473;BME280;11909;52.516;13.564;2023-07-31T08:30:21;100195.09;;;16.69;100.00
23473;BME280;11909;52.516;13.564;2023-07-31T08:32:49;100193.13;;;16.69;100.00
23473;BME280;11909;52.516;13.564;2023-07-31T08:35:17;100189.06;;;16.67;100.00
23473;BME280;11909;52.516;13.564;2023-07-31T08:37:47;100185.63;;;16.70;100.00
23473;BME280;11909;52.516;13.564;2023-07-31T08:40:15;100194.34;;;16.81;100.00
23473;BME280;11909;52.516;13.564;2023-07-31T08:42:44;100199.09;;;16.80;100.00
23473;BME280;11909;52.516;13.564;2023-07-31T08:45:14;100194.81;;;16.83;100.00
23473;BME280;11909;52.516;13.564;2023-07-31T08:47:44;100193.94;;;16.70;100.00
23473;BME280;11909;52.516;13.564;2023-07-31T08:50:15;100195.44;;;16.67;100.00
23473;BME280;11909;52.516;13.564;2023-07-31T08:52:43;100186.78;;;16.69;100.00
23473;BME280;11909;52.516;13.564;2023-07-31T08:55:13;100192.47;;;16.72;100.00
23473;BME280;11909;52.516;13.564;2023-07-31T08:57:42;100199.34;;;16.66;100.00
23473;BME280;11909;52.516;13.564;2023-07-31T09:00:11;100194.28;;;16.68;100.00
23473;BME280;11909;52.516;13.564;2023-07-31T09:02:45;100186.03;;;16.81;100.00
23473;BME280;11909;52.516;13.564;2023-07-31T09:05:14;100188.34;;;16.78;100.00
23473;BME280;11909;52.516;13.564;2023-07-31T09:07:43;100199.22;;;16.84;100.00
23473;BME280;11909;52.516;13.564;2023-07-31T09:10:15;100197.31;;;16.75;100.00
23473;BME280;11909;52.516;13.564;2023-07-31T09:12:43;100194.28;;;16.89;100.00
23473;BME280;11909;52.516;13.564;2023-07-31T09:15:12;100192.44;;;17.02;100.00
23473;BME280;11909;52.516;13.564;2023-07-31T09:17:58;100195.91;;;16.90;100.00
23473;BME280;11909;52.516;13.564;2023-07-31T09:20:28;100187.75;;;16.94;100.00
23473;BME280;11909;52.516;13.564;2023-07-31T09:23:05;100191.50;;;16.98;100.00
23473;BME280;11909;52.516;13.564;2023-07-31T09:25:36;100190.19;;;16.96;100.00
23473;BME280;11909;52.516;13.564;2023-07-31T09:28:05;100182.88;;;16.91;100.00
23473;BME280;11909;52.516;13.564;2023-07-31T09:30:47;100181.25;;;16.90;100.00
23473;BME280;11909;52.516;13.564;2023-07-31T09:33:15;100181.06;;;16.95;100.00
23473;BME280;11909;52.516;13.564;2023-07-31T09:35:50;100187.75;;;16.94;100.00
23473;BME280;11909;52.516;13.564;2023-07-31T09:38:17;100181.25;;;16.90;100.00
23473;BME280;11909;52.516;13.564;2023-07-31T09:40:48;100188.72;;;16.98;100.00
23473;BME280;11909;52.516;13.564;2023-07-31T09:43:37;100193.59;;;17.01;100.00
23473;BME280;11909;52.516;13.564;2023-07-31T09:46:13;100181.31;;;16.81;100.00
23473;BME280;11909;52.516;13.564;2023-07-31T09:48:41;100187.75;;;16.73;100.00
23473;BME280;11909;52.516;13.564;2023-07-31T09:51:09;100182.09;;;16.60;100.00
23473;BME280;11909;52.516;13.564;2023-07-31T09:53:36;100183.88;;;16.65;100.00
23473;BME280;11909;52.516;13.564;2023-07-31T09:56:06;100182.06;;;16.69;100.00
23473;BME280;11909;52.516;13.564;2023-07-31T09:58:35;100181.13;;;16.65;100.00
23473;BME280;11909;52.516;13.564;2023-07-31T10:01:03;100177.59;;;16.77;100.00
23473;BME280;11909;52.516;13.564;2023-07-31T10:03:32;100168.47;;;16.76;100.00
23473;BME280;11909;52.516;13.564;2023-07-31T10:06:02;100171.44;;;16.71;100.00
23473;BME280;11909;52.516;13.564;2023-07-31T10:08:32;100176.94;;;16.80;100.00
23473;BME280;11909;52.516;13.564;2023-07-31T10:11:03;100168.63;;;16.80;100.00
23473;BME280;11909;52.516;13.564;2023-07-31T10:13:33;100164.69;;;16.81;100.00
23473;BME280;11909;52.516;13.564;2023-07-31T10:16:02;100169.88;;;16.83;100.00
23473;BME280;11909;52.516;13.564;2023-07-31T10:18:30;100167.38;;;16.99;100.00
23473;BME280;11909;52.516;13.564;2023-07-31T10:20:59;100158.41;;;17.14;100.00
23473;BME280;11909;52.516;13.564;2023-07-31T10:23:27;100166.28;;;17.12;100.00
23473;BME280;11909;52.516;13.564;2023-07-31T10:25:57;100163.56;;;17.25;100.00
23473;BME280;11909;52.516;13.564;2023-07-31T10:28:27;100167.09;;;17.13;100.00
23473;BME280;11909;52.516;13.564;2023-07-31T10:30:57;100169.78;;;17.22;100.00
23473;BME280;11909;52.516;13.564;2023-07-31T10:33:25;100166.06;;;17.17;100.00
23473;BME280;11909;52.516;13.564;2023-07-31T10:36:14;100159.50;;;17.22;100.00
23473;BME280;11909;52.516;13.564;2023-07-31T10:38:44;100165.47;;;17.12;100.00
23473;BME280;11909;52.516;13.564;2023-07-31T10:41:12;100169.66;;;17.18;100.00
23473;BME280;11909;52.516;13.564;2023-07-31T10:43:40;100159.50;;;17.22;100.00
23473;BME280;11909;52.516;13.564;2023-07-31T10:46:12;100160.88;;;17.16;100.00
23473;BME280;11909;52.516;13.564;2023-07-31T10:48:41;100148.31;;;17.18;100.00
23473;BME280;11909;52.516;13.564;2023-07-31T10:51:11;100144.94;;;17.25;100.00
23473;BME280;11909;52.516;13.564;2023-07-31T10:53:39;100138.63;;;17.37;100.00
23473;BME280;11909;52.516;13.564;2023-07-31T10:56:09;100142.25;;;17.38;100.00
23473;BME280;11909;52.516;13.564;2023-07-31T10:58:44;100133.50;;;17.60;100.00
23473;BME280;11909;52.516;13.564;2023-07-31T11:01:14;100129.53;;;17.95;100.00
23473;BME280;11909;52.516;13.564;2023-07-31T11:03:43;100124.44;;;18.10;100.00
23473;BME280;11909;52.516;13.564;2023-07-31T11:06:12;100121.22;;;18.20;100.00
23473;BME280;11909;52.516;13.564;2023-07-31T11:08:45;100107.47;;;18.24;100.00
23473;BME280;11909;52.516;13.564;2023-07-31T11:11:15;100118.19;;;18.25;100.00
23473;BME280;11909;52.516;13.564;2023-07-31T11:13:45;100117.28;;;18.21;100.00
23473;BME280;11909;52.516;13.564;2023-07-31T11:16:18;100113.94;;;18.28;100.00
23473;BME280;11909;52.516;13.564;2023-07-31T11:18:47;100103.94;;;18.39;100.00
23473;BME280;11909;52.516;13.564;2023-07-31T11:21:18;100122.69;;;18.55;96.55
23473;BME280;11909;52.516;13.564;2023-07-31T11:23:47;100117.47;;;18.53;97.64
23473;BME280;11909;52.516;13.564;2023-07-31T11:26:15;100114.47;;;18.46;96.62
23473;BME280;11909;52.516;13.564;2023-07-31T11:28:46;100111.13;;;18.53;94.36
23473;BME280;11909;52.516;13.564;2023-07-31T11:31:15;100096.84;;;18.67;95.36
23473;BME280;11909;52.516;13.564;2023-07-31T11:33:44;100097.88;;;18.74;95.71
23473;BME280;11909;52.516;13.564;2023-07-31T11:36:14;100117.28;;;18.87;91.73
23473;BME280;11909;52.516;13.564;2023-07-31T11:38:43;100116.09;;;19.00;89.70
23473;BME280;11909;52.516;13.564;2023-07-31T11:41:13;100116.03;;;19.13;87.58
23473;BME280;11909;52.516;13.564;2023-07-31T11:43:43;100109.38;;;19.01;88.19
23473;BME280;11909;52.516;13.564;2023-07-31T11:46:11;100126.47;;;19.16;86.19
23473;BME280;11909;52.516;13.564;2023-07-31T11:48:43;100114.41;;;19.12;86.54
23473;BME280;11909;52.516;13.564;2023-07-31T11:51:13;100120.56;;;19.17;84.16
23473;BME280;11909;52.516;13.564;2023-07-31T11:53:43;100118.81;;;19.13;83.14
23473;BME280;11909;52.516;13.564;2023-07-31T11:56:13;100125.09;;;19.10;83.22
23473;BME280;11909;52.516;13.564;2023-07-31T11:58:43;100126.25;;;19.09;81.77
23473;BME280;11909;52.516;13.564;2023-07-31T12:01:14;100132.84;;;19.16;79.36
23473;BME280;11909;52.516;13.564;2023-07-31T12:03:45;100117.47;;;19.06;81.15
23473;BME280;11909;52.516;13.564;2023-07-31T12:06:13;100119.34;;;19.02;83.50
23473;BME280;11909;52.516;13.564;2023-07-31T12:08:41;100112.28;;;18.92;83.47
23473;BME280;11909;52.516;13.564;2023-07-31T12:11:09;100103.16;;;18.92;83.85
23473;BME280;11909;52.516;13.564;2023-07-31T12:13:37;100115.84;;;19.05;81.67
23473;BME280;11909;52.516;13.564;2023-07-31T12:16:05;100109.56;;;19.09;82.56
23473;BME280;11909;52.516;13.564;2023-07-31T12:18:35;100110.09;;;18.98;85.18
23473;BME280;11909;52.516;13.564;2023-07-31T12:21:06;100094.31;;;18.90;86.89
23473;BME280;11909;52.516;13.564;2023-07-31T12:23:36;100098.53;;;18.84;86.02
23473;BME280;11909;52.516;13.564;2023-07-31T12:26:05;100098.03;;;18.94;83.34
23473;BME280;11909;52.516;13.564;2023-07-31T12:28:37;100089.13;;;18.88;85.49
23473;BME280;11909;52.516;13.564;2023-07-31T12:31:08;100087.72;;;18.95;85.03
23473;BME280;11909;52.516;13.564;2023-07-31T12:33:38;100091.53;;;19.02;83.20
23473;BME280;11909;52.516;13.564;2023-07-31T12:36:09;100095.47;;;19.01;83.03
23473;BME280;11909;52.516;13.564;2023-07-31T12:38:37;100084.53;;;19.09;82.40
23473;BME280;11909;52.516;13.564;2023-07-31T12:41:05;100085.28;;;19.22;79.91
23473;BME280;11909;52.516;13.564;2023-07-31T12:43:33;100091.75;;;19.26;80.32
23473;BME280;11909;52.516;13.564;2023-07-31T12:46:02;100087.84;;;19.27;80.52